Terminal Aerodrome Forecast
Issued by NWS

Home | Current Version | Previous Version | Graphics & Text | Print | Product List | Glossary On
Versions: 1 2 3 4 5 6 7 8 9 10 11 12 13 14 15
088
FTUS43 KMPX 192339
TAFRNH
TAF
KRNH 192339Z 2000/2024 17004KT P6SM SKC
     FM201100 17004KT P6SM BKN070
     FM201700 24007KT P6SM BKN070 PROB30 2017/2022 -SHRA
     FM202200 30006KT P6SM SCT100=

USA.gov is the U.S. government's official web portal to all federal, state and local government web resources and services.